sensor_id;sensor_type;location;lat;lon;timestamp;P1;durP1;ratioP1;P2;durP2;ratioP2
56457;SDS011;42360;42.918;12.366;2023-01-08T00:01:51;21.23;;;10.85;;
56457;SDS011;42360;42.918;12.366;2023-01-08T00:04:17;12.98;;;7.82;;
56457;SDS011;42360;42.918;12.366;2023-01-08T00:06:43;8.60;;;5.90;;
56457;SDS011;42360;42.918;12.366;2023-01-08T00:09:09;16.42;;;11.38;;
56457;SDS011;42360;42.918;12.366;2023-01-08T00:11:35;18.75;;;11.52;;
56457;SDS011;42360;42.918;12.366;2023-01-08T00:14:01;15.02;;;11.00;;
56457;SDS011;42360;42.918;12.366;2023-01-08T00:16:26;19.20;;;11.20;;
56457;SDS011;42360;42.918;12.366;2023-01-08T00:18:52;18.02;;;11.05;;
56457;SDS011;42360;42.918;12.366;2023-01-08T00:21:17;12.38;;;8.52;;
56457;SDS011;42360;42.918;12.366;2023-01-08T00:23:43;20.95;;;12.85;;
56457;SDS011;42360;42.918;12.366;2023-01-08T00:26:09;11.55;;;8.10;;
56457;SDS011;42360;42.918;12.366;2023-01-08T00:28:35;18.95;;;10.70;;
56457;SDS011;42360;42.918;12.366;2023-01-08T00:31:02;20.67;;;11.10;;
56457;SDS011;42360;42.918;12.366;2023-01-08T00:33:28;18.10;;;11.10;;
56457;SDS011;42360;42.918;12.366;2023-01-08T00:35:54;14.27;;;9.20;;
56457;SDS011;42360;42.918;12.366;2023-01-08T00:38:23;10.20;;;8.93;;
56457;SDS011;42360;42.918;12.366;2023-01-08T00:40:50;21.63;;;11.40;;
56457;SDS011;42360;42.918;12.366;2023-01-08T00:43:15;21.13;;;12.93;;
56457;SDS011;42360;42.918;12.366;2023-01-08T00:45:41;16.73;;;10.95;;
56457;SDS011;42360;42.918;12.366;2023-01-08T00:48:07;23.50;;;12.50;;
56457;SDS011;42360;42.918;12.366;2023-01-08T00:50:32;11.15;;;8.10;;
56457;SDS011;42360;42.918;12.366;2023-01-08T00:52:58;19.10;;;11.02;;
56457;SDS011;42360;42.918;12.366;2023-01-08T00:55:23;17.20;;;10.65;;
56457;SDS011;42360;42.918;12.366;2023-01-08T00:57:49;20.13;;;14.02;;
56457;SDS011;42360;42.918;12.366;2023-01-08T01:00:14;19.08;;;13.05;;
56457;SDS011;42360;42.918;12.366;2023-01-08T01:02:42;23.65;;;14.40;;
56457;SDS011;42360;42.918;12.366;2023-01-08T01:05:09;10.85;;;8.10;;
56457;SDS011;42360;42.918;12.366;2023-01-08T01:07:39;18.77;;;11.40;;
56457;SDS011;42360;42.918;12.366;2023-01-08T01:10:06;20.48;;;13.02;;
56457;SDS011;42360;42.918;12.366;2023-01-08T01:12:32;15.52;;;9.43;;
56457;SDS011;42360;42.918;12.366;2023-01-08T01:14:57;21.58;;;13.63;;
56457;SDS011;42360;42.918;12.366;2023-01-08T01:17:23;20.75;;;13.52;;
56457;SDS011;42360;42.918;12.366;2023-01-08T01:19:49;23.08;;;13.20;;
56457;SDS011;42360;42.918;12.366;2023-01-08T01:22:14;23.73;;;12.82;;
56457;SDS011;42360;42.918;12.366;2023-01-08T01:24:40;18.38;;;11.32;;
56457;SDS011;42360;42.918;12.366;2023-01-08T01:27:05;24.23;;;13.38;;
56457;SDS011;42360;42.918;12.366;2023-01-08T01:29:31;21.75;;;10.60;;
56457;SDS011;42360;42.918;12.366;2023-01-08T01:31:56;16.33;;;10.25;;
56457;SDS011;42360;42.918;12.366;2023-01-08T01:34:22;21.27;;;13.60;;
56457;SDS011;42360;42.918;12.366;2023-01-08T01:36:48;22.98;;;13.98;;
56457;SDS011;42360;42.918;12.366;2023-01-08T01:39:13;17.45;;;11.55;;
56457;SDS011;42360;42.918;12.366;2023-01-08T01:41:40;15.00;;;9.60;;
56457;SDS011;42360;42.918;12.366;2023-01-08T01:46:58;14.18;;;10.85;;
56457;SDS011;42360;42.918;12.366;2023-01-08T01:49:25;15.13;;;9.90;;
56457;SDS011;42360;42.918;12.366;2023-01-08T01:51:53;15.77;;;10.18;;
56457;SDS011;42360;42.918;12.366;2023-01-08T01:54:20;16.98;;;10.25;;
56457;SDS011;42360;42.918;12.366;2023-01-08T01:56:46;10.65;;;7.63;;
56457;SDS011;42360;42.918;12.366;2023-01-08T01:59:12;11.95;;;8.85;;
56457;SDS011;42360;42.918;12.366;2023-01-08T02:01:39;11.68;;;9.25;;
56457;SDS011;42360;42.918;12.366;2023-01-08T02:04:04;19.58;;;10.45;;
56457;SDS011;42360;42.918;12.366;2023-01-08T02:06:34;9.93;;;7.80;;
56457;SDS011;42360;42.918;12.366;2023-01-08T02:14:41;13.63;;;8.95;;
56457;SDS011;42360;42.918;12.366;2023-01-08T02:17:20;23.98;;;13.90;;
56457;SDS011;42360;42.918;12.366;2023-01-08T02:19:51;16.20;;;9.80;;
56457;SDS011;42360;42.918;12.366;2023-01-08T02:24:56;14.23;;;9.57;;
56457;SDS011;42360;42.918;12.366;2023-01-08T02:27:33;20.77;;;10.82;;
56457;SDS011;42360;42.918;12.366;2023-01-08T02:30:00;13.35;;;8.00;;
56457;SDS011;42360;42.918;12.366;2023-01-08T02:32:31;14.80;;;10.02;;
56457;SDS011;42360;42.918;12.366;2023-01-08T02:34:58;15.67;;;10.47;;
56457;SDS011;42360;42.918;12.366;2023-01-08T02:37:24;20.20;;;14.27;;
56457;SDS011;42360;42.918;12.366;2023-01-08T02:40:06;16.33;;;10.48;;
56457;SDS011;42360;42.918;12.366;2023-01-08T02:43:00;24.30;;;12.57;;
56457;SDS011;42360;42.918;12.366;2023-01-08T02:48:08;5.88;;;4.85;;
56457;SDS011;42360;42.918;12.366;2023-01-08T02:50:38;24.02;;;14.25;;
56457;SDS011;42360;42.918;12.366;2023-01-08T02:56:14;27.23;;;15.45;;
56457;SDS011;42360;42.918;12.366;2023-01-08T02:58:51;22.67;;;13.10;;
56457;SDS011;42360;42.918;12.366;2023-01-08T03:01:18;16.25;;;11.93;;
56457;SDS011;42360;42.918;12.366;2023-01-08T03:03:45;25.85;;;15.35;;
56457;SDS011;42360;42.918;12.366;2023-01-08T03:06:15;20.95;;;13.15;;
56457;SDS011;42360;42.918;12.366;2023-01-08T03:08:43;19.88;;;12.20;;
56457;SDS011;42360;42.918;12.366;2023-01-08T03:11:11;19.02;;;12.68;;
56457;SDS011;42360;42.918;12.366;2023-01-08T03:13:45;18.58;;;11.57;;
56457;SDS011;42360;42.918;12.366;2023-01-08T03:16:16;17.77;;;10.98;;
56457;SDS011;42360;42.918;12.366;2023-01-08T03:18:44;10.35;;;7.43;;
56457;SDS011;42360;42.918;12.366;2023-01-08T03:21:13;22.20;;;15.57;;
56457;SDS011;42360;42.918;12.366;2023-01-08T03:23:41;16.00;;;10.70;;
56457;SDS011;42360;42.918;12.366;2023-01-08T03:26:07;15.18;;;8.95;;
56457;SDS011;42360;42.918;12.366;2023-01-08T03:28:35;16.38;;;9.77;;
56457;SDS011;42360;42.918;12.366;2023-01-08T03:31:03;19.17;;;11.05;;
56457;SDS011;42360;42.918;12.366;2023-01-08T03:33:29;15.00;;;10.52;;
56457;SDS011;42360;42.918;12.366;2023-01-08T03:35:56;26.73;;;15.18;;
56457;SDS011;42360;42.918;12.366;2023-01-08T03:38:25;17.85;;;11.20;;
56457;SDS011;42360;42.918;12.366;2023-01-08T03:41:00;23.45;;;12.88;;
56457;SDS011;42360;42.918;12.366;2023-01-08T03:43:29;13.63;;;9.85;;
56457;SDS011;42360;42.918;12.366;2023-01-08T03:45:55;28.15;;;17.45;;
56457;SDS011;42360;42.918;12.366;2023-01-08T03:48:23;22.40;;;13.48;;
56457;SDS011;42360;42.918;12.366;2023-01-08T03:50:49;19.55;;;12.75;;
56457;SDS011;42360;42.918;12.366;2023-01-08T03:53:15;18.77;;;13.90;;
56457;SDS011;42360;42.918;12.366;2023-01-08T03:55:40;16.80;;;10.63;;
56457;SDS011;42360;42.918;12.366;2023-01-08T03:58:06;16.10;;;10.32;;
56457;SDS011;42360;42.918;12.366;2023-01-08T04:00:38;23.48;;;14.88;;
56457;SDS011;42360;42.918;12.366;2023-01-08T04:03:06;26.70;;;16.92;;
56457;SDS011;42360;42.918;12.366;2023-01-08T04:05:31;15.38;;;10.77;;
56457;SDS011;42360;42.918;12.366;2023-01-08T04:07:57;7.22;;;6.53;;
56457;SDS011;42360;42.918;12.366;2023-01-08T04:10:23;20.38;;;12.27;;
56457;SDS011;42360;42.918;12.366;2023-01-08T04:12:49;16.25;;;10.45;;
56457;SDS011;42360;42.918;12.366;2023-01-08T04:15:15;10.90;;;8.63;;
56457;SDS011;42360;42.918;12.366;2023-01-08T04:17:41;23.45;;;12.68;;
56457;SDS011;42360;42.918;12.366;2023-01-08T04:20:06;22.05;;;13.38;;
56457;SDS011;42360;42.918;12.366;2023-01-08T04:22:32;28.58;;;16.65;;
56457;SDS011;42360;42.918;12.366;2023-01-08T04:24:58;18.67;;;12.15;;
56457;SDS011;42360;42.918;12.366;2023-01-08T04:27:24;26.48;;;17.00;;
56457;SDS011;42360;42.918;12.366;2023-01-08T04:29:49;24.38;;;14.07;;
56457;SDS011;42360;42.918;12.366;2023-01-08T04:32:15;28.08;;;15.32;;
56457;SDS011;42360;42.918;12.366;2023-01-08T04:34:41;10.68;;;8.13;;
56457;SDS011;42360;42.918;12.366;2023-01-08T04:37:07;24.67;;;15.35;;
56457;SDS011;42360;42.918;12.366;2023-01-08T04:39:33;12.77;;;7.05;;
56457;SDS011;42360;42.918;12.366;2023-01-08T04:41:58;10.30;;;8.30;;
56457;SDS011;42360;42.918;12.366;2023-01-08T04:44:24;21.90;;;14.88;;
56457;SDS011;42360;42.918;12.366;2023-01-08T04:46:49;22.95;;;13.85;;
56457;SDS011;42360;42.918;12.366;2023-01-08T04:49:15;22.20;;;14.18;;
56457;SDS011;42360;42.918;12.366;2023-01-08T04:51:40;27.73;;;18.20;;
56457;SDS011;42360;42.918;12.366;2023-01-08T04:54:06;22.25;;;13.80;;
56457;SDS011;42360;42.918;12.366;2023-01-08T04:56:32;16.05;;;12.82;;
56457;SDS011;42360;42.918;12.366;2023-01-08T04:58:57;27.00;;;17.83;;
56457;SDS011;42360;42.918;12.366;2023-01-08T05:01:24;26.08;;;15.10;;
56457;SDS011;42360;42.918;12.366;2023-01-08T05:03:54;31.35;;;15.93;;
56457;SDS011;42360;42.918;12.366;2023-01-08T05:06:21;25.23;;;15.68;;
56457;SDS011;42360;42.918;12.366;2023-01-08T05:08:46;25.48;;;15.02;;
56457;SDS011;42360;42.918;12.366;2023-01-08T05:11:12;18.45;;;11.55;;
56457;SDS011;42360;42.918;12.366;2023-01-08T05:13:38;24.67;;;14.50;;
56457;SDS011;42360;42.918;12.366;2023-01-08T05:16:03;26.73;;;15.95;;
56457;SDS011;42360;42.918;12.366;2023-01-08T05:18:29;17.38;;;12.18;;
56457;SDS011;42360;42.918;12.366;2023-01-08T05:20:58;18.88;;;13.30;;
56457;SDS011;42360;42.918;12.366;2023-01-08T05:23:25;23.67;;;14.70;;
56457;SDS011;42360;42.918;12.366;2023-01-08T05:25:51;23.52;;;14.25;;
56457;SDS011;42360;42.918;12.366;2023-01-08T05:28:16;26.27;;;14.75;;
56457;SDS011;42360;42.918;12.366;2023-01-08T05:30:42;20.00;;;10.35;;
56457;SDS011;42360;42.918;12.366;2023-01-08T05:33:07;21.48;;;13.50;;
56457;SDS011;42360;42.918;12.366;2023-01-08T05:35:33;26.30;;;15.55;;
56457;SDS011;42360;42.918;12.366;2023-01-08T05:37:59;21.20;;;9.88;;
56457;SDS011;42360;42.918;12.366;2023-01-08T05:40:25;16.38;;;11.25;;
56457;SDS011;42360;42.918;12.366;2023-01-08T05:42:50;11.38;;;8.25;;
56457;SDS011;42360;42.918;12.366;2023-01-08T05:45:16;24.67;;;12.85;;
56457;SDS011;42360;42.918;12.366;2023-01-08T05:47:42;19.98;;;11.23;;
56457;SDS011;42360;42.918;12.366;2023-01-08T05:50:07;15.07;;;10.38;;
56457;SDS011;42360;42.918;12.366;2023-01-08T05:52:33;26.42;;;13.57;;
56457;SDS011;42360;42.918;12.366;2023-01-08T05:54:59;19.80;;;11.50;;
56457;SDS011;42360;42.918;12.366;2023-01-08T05:57:24;20.30;;;12.43;;
56457;SDS011;42360;42.918;12.366;2023-01-08T05:59:50;20.75;;;13.20;;
56457;SDS011;42360;42.918;12.366;2023-01-08T06:02:16;23.10;;;13.65;;
56457;SDS011;42360;42.918;12.366;2023-01-08T06:04:42;20.83;;;12.52;;
56457;SDS011;42360;42.918;12.366;2023-01-08T06:07:08;28.73;;;17.05;;
56457;SDS011;42360;42.918;12.366;2023-01-08T06:09:33;27.98;;;17.15;;
56457;SDS011;42360;42.918;12.366;2023-01-08T06:11:59;30.75;;;16.05;;
56457;SDS011;42360;42.918;12.366;2023-01-08T06:14:24;24.08;;;15.25;;
56457;SDS011;42360;42.918;12.366;2023-01-08T06:16:50;23.70;;;13.30;;
56457;SDS011;42360;42.918;12.366;2023-01-08T06:19:15;19.67;;;11.60;;
56457;SDS011;42360;42.918;12.366;2023-01-08T06:21:43;21.33;;;13.45;;
56457;SDS011;42360;42.918;12.366;2023-01-08T06:24:08;26.73;;;15.35;;
56457;SDS011;42360;42.918;12.366;2023-01-08T06:26:34;28.58;;;16.73;;
56457;SDS011;42360;42.918;12.366;2023-01-08T06:29:00;28.58;;;15.63;;
56457;SDS011;42360;42.918;12.366;2023-01-08T06:31:25;17.23;;;12.23;;
56457;SDS011;42360;42.918;12.366;2023-01-08T06:33:51;23.27;;;15.57;;
56457;SDS011;42360;42.918;12.366;2023-01-08T06:36:16;26.40;;;15.77;;
56457;SDS011;42360;42.918;12.366;2023-01-08T06:38:43;22.60;;;13.18;;
56457;SDS011;42360;42.918;12.366;2023-01-08T06:41:09;22.80;;;13.38;;
56457;SDS011;42360;42.918;12.366;2023-01-08T06:43:35;22.10;;;12.45;;
56457;SDS011;42360;42.918;12.366;2023-01-08T06:46:02;16.65;;;11.55;;
56457;SDS011;42360;42.918;12.366;2023-01-08T06:48:29;20.65;;;12.98;;
56457;SDS011;42360;42.918;12.366;2023-01-08T06:50:54;20.45;;;12.15;;
56457;SDS011;42360;42.918;12.366;2023-01-08T06:53:21;19.55;;;11.63;;
56457;SDS011;42360;42.918;12.366;2023-01-08T06:55:47;22.90;;;12.90;;
56457;SDS011;42360;42.918;12.366;2023-01-08T06:58:13;22.23;;;12.43;;
56457;SDS011;42360;42.918;12.366;2023-01-08T07:00:38;23.38;;;13.27;;
56457;SDS011;42360;42.918;12.366;2023-01-08T07:03:04;23.85;;;12.65;;
56457;SDS011;42360;42.918;12.366;2023-01-08T07:05:30;23.77;;;13.25;;
56457;SDS011;42360;42.918;12.366;2023-01-08T07:07:56;18.27;;;12.73;;
56457;SDS011;42360;42.918;12.366;2023-01-08T07:10:22;20.83;;;10.65;;
56457;SDS011;42360;42.918;12.366;2023-01-08T07:12:47;17.48;;;10.88;;
56457;SDS011;42360;42.918;12.366;2023-01-08T07:15:14;18.45;;;11.55;;
56457;SDS011;42360;42.918;12.366;2023-01-08T07:17:40;13.38;;;8.90;;
56457;SDS011;42360;42.918;12.366;2023-01-08T07:20:06;11.85;;;8.95;;
56457;SDS011;42360;42.918;12.366;2023-01-08T07:22:33;14.23;;;9.18;;
56457;SDS011;42360;42.918;12.366;2023-01-08T07:24:59;12.57;;;9.05;;
56457;SDS011;42360;42.918;12.366;2023-01-08T07:27:24;12.82;;;8.68;;
56457;SDS011;42360;42.918;12.366;2023-01-08T07:29:50;15.77;;;9.55;;
56457;SDS011;42360;42.918;12.366;2023-01-08T07:32:15;18.40;;;11.18;;
56457;SDS011;42360;42.918;12.366;2023-01-08T07:34:41;12.65;;;8.70;;
56457;SDS011;42360;42.918;12.366;2023-01-08T07:37:07;17.13;;;9.93;;
56457;SDS011;42360;42.918;12.366;2023-01-08T07:39:32;18.50;;;11.55;;
56457;SDS011;42360;42.918;12.366;2023-01-08T07:41:58;12.93;;;8.80;;
56457;SDS011;42360;42.918;12.366;2023-01-08T07:44:23;11.68;;;8.60;;
56457;SDS011;42360;42.918;12.366;2023-01-08T07:46:49;24.17;;;11.27;;
56457;SDS011;42360;42.918;12.366;2023-01-08T07:49:14;10.75;;;6.53;;
56457;SDS011;42360;42.918;12.366;2023-01-08T07:51:40;10.27;;;7.18;;
56457;SDS011;42360;42.918;12.366;2023-01-08T07:54:06;10.95;;;8.25;;
56457;SDS011;42360;42.918;12.366;2023-01-08T07:56:31;8.15;;;7.40;;
56457;SDS011;42360;42.918;12.366;2023-01-08T07:58:57;12.95;;;8.80;;
56457;SDS011;42360;42.918;12.366;2023-01-08T08:01:22;6.20;;;5.30;;
56457;SDS011;42360;42.918;12.366;2023-01-08T08:03:50;7.90;;;6.13;;
56457;SDS011;42360;42.918;12.366;2023-01-08T08:06:15;11.40;;;6.35;;
56457;SDS011;42360;42.918;12.366;2023-01-08T08:08:41;10.40;;;8.93;;
56457;SDS011;42360;42.918;12.366;2023-01-08T08:11:06;14.85;;;8.55;;
56457;SDS011;42360;42.918;12.366;2023-01-08T08:13:32;8.73;;;6.28;;
56457;SDS011;42360;42.918;12.366;2023-01-08T08:16:01;9.35;;;6.35;;
56457;SDS011;42360;42.918;12.366;2023-01-08T08:18:27;13.68;;;9.80;;
56457;SDS011;42360;42.918;12.366;2023-01-08T08:20:53;10.13;;;7.97;;
56457;SDS011;42360;42.918;12.366;2023-01-08T08:23:18;9.60;;;5.88;;
56457;SDS011;42360;42.918;12.366;2023-01-08T08:25:44;6.07;;;4.32;;
56457;SDS011;42360;42.918;12.366;2023-01-08T08:28:10;7.70;;;6.43;;
56457;SDS011;42360;42.918;12.366;2023-01-08T08:30:36;14.02;;;7.97;;
56457;SDS011;42360;42.918;12.366;2023-01-08T08:33:04;11.45;;;7.68;;
56457;SDS011;42360;42.918;12.366;2023-01-08T08:35:30;7.40;;;6.57;;
56457;SDS011;42360;42.918;12.366;2023-01-08T08:37:56;7.45;;;6.15;;
56457;SDS011;42360;42.918;12.366;2023-01-08T08:40:22;11.32;;;5.88;;
56457;SDS011;42360;42.918;12.366;2023-01-08T08:42:53;14.85;;;8.55;;
56457;SDS011;42360;42.918;12.366;2023-01-08T08:47:45;8.05;;;6.35;;
56457;SDS011;42360;42.918;12.366;2023-01-08T08:50:10;8.23;;;4.93;;
56457;SDS011;42360;42.918;12.366;2023-01-08T08:52:36;9.55;;;6.45;;
56457;SDS011;42360;42.918;12.366;2023-01-08T08:55:02;14.60;;;7.53;;
56457;SDS011;42360;42.918;12.366;2023-01-08T08:57:27;7.70;;;5.30;;
56457;SDS011;42360;42.918;12.366;2023-01-08T08:59:53;6.90;;;4.38;;
56457;SDS011;42360;42.918;12.366;2023-01-08T09:02:18;8.65;;;5.30;;
56457;SDS011;42360;42.918;12.366;2023-01-08T09:04:44;11.13;;;7.72;;
56457;SDS011;42360;42.918;12.366;2023-01-08T09:07:10;8.90;;;6.40;;
56457;SDS011;42360;42.918;12.366;2023-01-08T09:09:35;9.48;;;5.97;;
56457;SDS011;42360;42.918;12.366;2023-01-08T09:12:01;7.22;;;5.05;;
56457;SDS011;42360;42.918;12.366;2023-01-08T09:14:26;7.22;;;6.43;;
56457;SDS011;42360;42.918;12.366;2023-01-08T09:16:52;14.77;;;8.52;;
56457;SDS011;42360;42.918;12.366;2023-01-08T09:19:18;8.55;;;6.13;;
56457;SDS011;42360;42.918;12.366;2023-01-08T09:21:43;7.22;;;6.45;;
56457;SDS011;42360;42.918;12.366;2023-01-08T09:24:09;5.53;;;4.70;;
56457;SDS011;42360;42.918;12.366;2023-01-08T09:26:34;7.78;;;5.90;;
56457;SDS011;42360;42.918;12.366;2023-01-08T09:29:00;11.38;;;7.68;;
56457;SDS011;42360;42.918;12.366;2023-01-08T09:31:26;8.35;;;5.10;;
56457;SDS011;42360;42.918;12.366;2023-01-08T09:33:52;6.75;;;4.68;;
56457;SDS011;42360;42.918;12.366;2023-01-08T09:36:17;8.18;;;4.28;;
56457;SDS011;42360;42.918;12.366;2023-01-08T09:38:43;10.20;;;7.30;;
56457;SDS011;42360;42.918;12.366;2023-01-08T09:41:17;11.45;;;6.60;;
56457;SDS011;42360;42.918;12.366;2023-01-08T09:43:46;7.15;;;5.55;;
56457;SDS011;42360;42.918;12.366;2023-01-08T09:46:12;7.68;;;5.15;;
56457;SDS011;42360;42.918;12.366;2023-01-08T09:48:39;7.32;;;5.80;;
56457;SDS011;42360;42.918;12.366;2023-01-08T09:51:08;6.72;;;3.95;;
56457;SDS011;42360;42.918;12.366;2023-01-08T09:53:37;5.90;;;4.53;;
56457;SDS011;42360;42.918;12.366;2023-01-08T09:56:03;9.25;;;5.38;;
56457;SDS011;42360;42.918;12.366;2023-01-08T09:58:47;8.77;;;4.35;;
56457;SDS011;42360;42.918;12.366;2023-01-08T10:01:15;4.13;;;3.70;;
56457;SDS011;42360;42.918;12.366;2023-01-08T10:03:50;8.95;;;5.80;;
56457;SDS011;42360;42.918;12.366;2023-01-08T10:06:24;7.03;;;4.97;;
56457;SDS011;42360;42.918;12.366;2023-01-08T10:08:50;8.43;;;5.05;;
56457;SDS011;42360;42.918;12.366;2023-01-08T10:11:16;7.93;;;6.35;;
56457;SDS011;42360;42.918;12.366;2023-01-08T10:13:49;6.18;;;5.28;;
56457;SDS011;42360;42.918;12.366;2023-01-08T10:16:23;5.93;;;3.38;;
56457;SDS011;42360;42.918;12.366;2023-01-08T10:18:54;4.43;;;4.13;;
56457;SDS011;42360;42.918;12.366;2023-01-08T10:21:22;7.22;;;4.38;;
56457;SDS011;42360;42.918;12.366;2023-01-08T10:23:53;9.43;;;4.15;;
56457;SDS011;42360;42.918;12.366;2023-01-08T10:26:26;6.85;;;4.57;;
56457;SDS011;42360;42.918;12.366;2023-01-08T10:29:16;4.80;;;4.30;;
56457;SDS011;42360;42.918;12.366;2023-01-08T10:31:44;3.38;;;2.63;;
56457;SDS011;42360;42.918;12.366;2023-01-08T10:34:11;8.20;;;4.40;;
56457;SDS011;42360;42.918;12.366;2023-01-08T10:36:48;6.90;;;4.72;;
56457;SDS011;42360;42.918;12.366;2023-01-08T10:39:25;5.50;;;4.25;;
56457;SDS011;42360;42.918;12.366;2023-01-08T10:41:54;3.33;;;2.70;;
56457;SDS011;42360;42.918;12.366;2023-01-08T10:44:21;9.80;;;5.20;;
56457;SDS011;42360;42.918;12.366;2023-01-08T10:46:48;2.92;;;2.65;;
56457;SDS011;42360;42.918;12.366;2023-01-08T10:51:54;5.70;;;4.28;;
56457;SDS011;42360;42.918;12.366;2023-01-08T10:54:38;5.80;;;4.53;;
56457;SDS011;42360;42.918;12.366;2023-01-08T10:59:50;4.40;;;3.50;;
56457;SDS011;42360;42.918;12.366;2023-01-08T11:02:28;6.03;;;4.15;;
56457;SDS011;42360;42.918;12.366;2023-01-08T11:04:54;5.75;;;2.72;;
56457;SDS011;42360;42.918;12.366;2023-01-08T11:07:21;5.95;;;3.55;;
56457;SDS011;42360;42.918;12.366;2023-01-08T11:09:48;2.90;;;2.33;;
56457;SDS011;42360;42.918;12.366;2023-01-08T11:12:20;3.50;;;2.00;;
56457;SDS011;42360;42.918;12.366;2023-01-08T11:14:53;3.25;;;2.25;;
56457;SDS011;42360;42.918;12.366;2023-01-08T11:17:18;4.13;;;3.20;;
56457;SDS011;42360;42.918;12.366;2023-01-08T11:19:44;3.80;;;2.25;;
56457;SDS011;42360;42.918;12.366;2023-01-08T11:22:17;3.72;;;2.35;;
56457;SDS011;42360;42.918;12.366;2023-01-08T11:24:44;3.08;;;2.53;;
56457;SDS011;42360;42.918;12.366;2023-01-08T11:35:14;12.53;;;7.60;;
56457;SDS011;42360;42.918;12.366;2023-01-08T11:37:54;8.15;;;4.70;;
56457;SDS011;42360;42.918;12.366;2023-01-08T11:40:30;4.57;;;2.33;;
56457;SDS011;42360;42.918;12.366;2023-01-08T11:57:22;2.85;;;2.65;;
56457;SDS011;42360;42.918;12.366;2023-01-08T12:03:02;6.10;;;4.88;;
56457;SDS011;42360;42.918;12.366;2023-01-08T12:08:04;4.20;;;3.15;;
56457;SDS011;42360;42.918;12.366;2023-01-08T12:10:34;6.03;;;4.30;;
56457;SDS011;42360;42.918;12.366;2023-01-08T12:26:53;5.93;;;3.50;;
56457;SDS011;42360;42.918;12.366;2023-01-08T12:34:40;4.82;;;3.40;;
56457;SDS011;42360;42.918;12.366;2023-01-08T12:37:26;6.03;;;3.85;;
56457;SDS011;42360;42.918;12.366;2023-01-08T12:39:57;4.38;;;3.55;;
56457;SDS011;42360;42.918;12.366;2023-01-08T12:42:31;5.13;;;4.25;;
56457;SDS011;42360;42.918;12.366;2023-01-08T12:44:59;4.63;;;3.25;;
56457;SDS011;42360;42.918;12.366;2023-01-08T12:47:27;4.80;;;4.20;;
56457;SDS011;42360;42.918;12.366;2023-01-08T12:52:53;4.28;;;3.88;;
56457;SDS011;42360;42.918;12.366;2023-01-08T12:55:38;5.15;;;4.22;;
56457;SDS011;42360;42.918;12.366;2023-01-08T12:58:17;5.47;;;3.22;;
56457;SDS011;42360;42.918;12.366;2023-01-08T13:01:33;6.03;;;4.95;;
56457;SDS011;42360;42.918;12.366;2023-01-08T13:03:45;8.20;;;3.50;;
56457;SDS011;42360;42.918;12.366;2023-01-08T13:06:12;3.67;;;3.20;;
56457;SDS011;42360;42.918;12.366;2023-01-08T13:08:39;5.72;;;4.03;;
56457;SDS011;42360;42.918;12.366;2023-01-08T13:11:06;4.30;;;3.53;;
56457;SDS011;42360;42.918;12.366;2023-01-08T13:13:33;3.63;;;3.17;;
56457;SDS011;42360;42.918;12.366;2023-01-08T13:18:35;5.05;;;3.97;;
56457;SDS011;42360;42.918;12.366;2023-01-08T13:21:02;4.45;;;4.05;;
56457;SDS011;42360;42.918;12.366;2023-01-08T13:23:29;4.70;;;4.30;;
56457;SDS011;42360;42.918;12.366;2023-01-08T13:25:57;5.45;;;3.30;;
56457;SDS011;42360;42.918;12.366;2023-01-08T13:30:48;3.47;;;2.90;;
56457;SDS011;42360;42.918;12.366;2023-01-08T13:33:35;2.63;;;2.35;;
56457;SDS011;42360;42.918;12.366;2023-01-08T13:36:13;8.20;;;4.32;;
56457;SDS011;42360;42.918;12.366;2023-01-08T13:41:55;4.03;;;3.63;;
56457;SDS011;42360;42.918;12.366;2023-01-08T13:44:25;5.85;;;4.03;;
56457;SDS011;42360;42.918;12.366;2023-01-08T13:46:55;2.92;;;2.28;;
56457;SDS011;42360;42.918;12.366;2023-01-08T14:01:28;3.75;;;2.95;;
56457;SDS011;42360;42.918;12.366;2023-01-08T14:03:54;4.40;;;3.13;;
56457;SDS011;42360;42.918;12.366;2023-01-08T14:06:20;2.70;;;2.50;;
56457;SDS011;42360;42.918;12.366;2023-01-08T14:11:21;5.90;;;2.78;;
56457;SDS011;42360;42.918;12.366;2023-01-08T14:13:58;4.25;;;3.80;;
56457;SDS011;42360;42.918;12.366;2023-01-08T14:16:23;8.25;;;3.53;;
56457;SDS011;42360;42.918;12.366;2023-01-08T14:18:49;14.52;;;4.78;;
56457;SDS011;42360;42.918;12.366;2023-01-08T14:21:19;2.78;;;2.55;;
56457;SDS011;42360;42.918;12.366;2023-01-08T14:23:46;5.13;;;3.20;;
56457;SDS011;42360;42.918;12.366;2023-01-08T14:29:00;3.30;;;2.92;;
56457;SDS011;42360;42.918;12.366;2023-01-08T14:31:27;4.07;;;3.20;;
56457;SDS011;42360;42.918;12.366;2023-01-08T14:33:54;3.40;;;2.70;;
56457;SDS011;42360;42.918;12.366;2023-01-08T14:36:21;4.65;;;3.60;;
56457;SDS011;42360;42.918;12.366;2023-01-08T14:38:47;5.85;;;2.88;;
56457;SDS011;42360;42.918;12.366;2023-01-08T14:41:19;7.40;;;4.05;;
56457;SDS011;42360;42.918;12.366;2023-01-08T14:44:12;6.80;;;6.05;;
56457;SDS011;42360;42.918;12.366;2023-01-08T14:46:38;7.82;;;5.20;;
56457;SDS011;42360;42.918;12.366;2023-01-08T14:49:04;6.63;;;4.25;;
56457;SDS011;42360;42.918;12.366;2023-01-08T14:51:29;3.58;;;3.10;;
56457;SDS011;42360;42.918;12.366;2023-01-08T14:53:57;4.00;;;3.03;;
56457;SDS011;42360;42.918;12.366;2023-01-08T14:58:54;4.22;;;3.42;;
56457;SDS011;42360;42.918;12.366;2023-01-08T15:01:24;6.00;;;3.63;;
56457;SDS011;42360;42.918;12.366;2023-01-08T15:06:24;2.72;;;2.13;;
56457;SDS011;42360;42.918;12.366;2023-01-08T15:13:51;3.15;;;2.65;;
56457;SDS011;42360;42.918;12.366;2023-01-08T15:16:30;5.53;;;4.35;;
56457;SDS011;42360;42.918;12.366;2023-01-08T15:19:03;7.45;;;4.40;;
56457;SDS011;42360;42.918;12.366;2023-01-08T15:21:38;2.72;;;2.53;;
56457;SDS011;42360;42.918;12.366;2023-01-08T15:24:14;7.07;;;3.97;;
56457;SDS011;42360;42.918;12.366;2023-01-08T15:26:46;7.63;;;3.47;;
56457;SDS011;42360;42.918;12.366;2023-01-08T15:29:12;6.45;;;3.70;;
56457;SDS011;42360;42.918;12.366;2023-01-08T15:34:07;4.55;;;3.80;;
56457;SDS011;42360;42.918;12.366;2023-01-08T15:36:33;5.93;;;4.43;;
56457;SDS011;42360;42.918;12.366;2023-01-08T15:38:58;4.22;;;3.90;;
56457;SDS011;42360;42.918;12.366;2023-01-08T15:41:24;6.18;;;3.35;;
56457;SDS011;42360;42.918;12.366;2023-01-08T15:44:09;7.30;;;3.70;;
56457;SDS011;42360;42.918;12.366;2023-01-08T15:46:37;4.40;;;3.63;;
56457;SDS011;42360;42.918;12.366;2023-01-08T15:49:02;5.53;;;3.58;;
56457;SDS011;42360;42.918;12.366;2023-01-08T15:51:32;5.88;;;4.03;;
56457;SDS011;42360;42.918;12.366;2023-01-08T15:53:58;3.95;;;3.05;;
56457;SDS011;42360;42.918;12.366;2023-01-08T15:56:24;5.20;;;4.07;;
56457;SDS011;42360;42.918;12.366;2023-01-08T15:58:50;5.50;;;4.38;;
56457;SDS011;42360;42.918;12.366;2023-01-08T16:01:17;3.80;;;3.42;;
56457;SDS011;42360;42.918;12.366;2023-01-08T16:03:43;3.63;;;3.03;;
56457;SDS011;42360;42.918;12.366;2023-01-08T16:06:09;7.38;;;3.80;;
56457;SDS011;42360;42.918;12.366;2023-01-08T16:08:35;3.35;;;3.13;;
56457;SDS011;42360;42.918;12.366;2023-01-08T16:11:00;5.28;;;3.63;;
56457;SDS011;42360;42.918;12.366;2023-01-08T16:13:26;2.65;;;2.45;;
56457;SDS011;42360;42.918;12.366;2023-01-08T16:15:52;2.42;;;2.17;;
56457;SDS011;42360;42.918;12.366;2023-01-08T16:18:19;3.50;;;3.20;;